createdAt,value
2023-01-29T00:00:38.000Z,12661.0
2023-01-29T00:01:38.000Z,12877.0
2023-01-29T00:02:38.000Z,13017.0
2023-01-29T00:03:38.000Z,13110.0
2023-01-29T00:04:39.000Z,13741.0
2023-01-29T00:05:38.000Z,13310.0
2023-01-29T00:06:38.000Z,14170.0
2023-01-29T00:07:39.000Z,14002.0
2023-01-29T00:08:38.000Z,13441.0
2023-01-29T00:09:38.000Z,14710.0
2023-01-29T00:10:38.000Z,15716.0
2023-01-29T00:11:38.000Z,14674.0
2023-01-29T00:12:39.000Z,14133.0
2023-01-29T00:13:38.000Z,12919.0
2023-01-29T00:14:38.000Z,12885.0
2023-01-29T00:15:39.000Z,12067.0
2023-01-29T00:16:38.000Z,10763.0
2023-01-29T00:17:38.000Z,10971.0
2023-01-29T00:18:39.000Z,11694.0
2023-01-29T00:19:38.000Z,11879.0
2023-01-29T00:20:38.000Z,11551.0
2023-01-29T00:21:38.000Z,12536.0
2023-01-29T00:22:38.000Z,13487.0
2023-01-29T00:23:39.000Z,12492.0
2023-01-29T00:24:38.000Z,12103.0
2023-01-29T00:25:38.000Z,12695.0
2023-01-29T00:26:38.000Z,13927.0
2023-01-29T00:27:38.000Z,13419.0
2023-01-29T00:28:39.000Z,13579.0
2023-01-29T00:29:38.000Z,14262.0
2023-01-29T00:30:38.000Z,15693.0
2023-01-29T00:31:39.000Z,14946.0
2023-01-29T00:32:38.000Z,13999.0
2023-01-29T00:33:38.000Z,13797.0
2023-01-29T00:34:38.000Z,13088.0
2023-01-29T00:35:38.000Z,13658.0
2023-01-29T00:36:39.000Z,13563.0
2023-01-29T00:37:38.000Z,13354.0
2023-01-29T00:38:38.000Z,12674.0
2023-01-29T00:39:39.000Z,13698.0
2023-01-29T00:40:38.000Z,13636.0
2023-01-29T00:41:39.000Z,12283.0
2023-01-29T00:42:38.000Z,13235.0
2023-01-29T00:43:38.000Z,13448.0
2023-01-29T00:44:39.000Z,14071.0
2023-01-29T00:45:38.000Z,13926.0
2023-01-29T00:46:38.000Z,14340.0
2023-01-29T00:47:38.000Z,13513.0
2023-01-29T00:48:38.000Z,12985.0
2023-01-29T00:49:39.000Z,12343.0
2023-01-29T00:50:38.000Z,12532.0
2023-01-29T00:51:38.000Z,12277.0
2023-01-29T00:52:38.000Z,12963.0
2023-01-29T00:53:38.000Z,12827.0
2023-01-29T00:54:39.000Z,12852.0
2023-01-29T00:55:38.000Z,12503.0
2023-01-29T00:56:38.000Z,12434.0
2023-01-29T00:57:39.000Z,13012.0
2023-01-29T00:58:38.000Z,12178.0
2023-01-29T00:59:38.000Z,12243.0
2023-01-29T01:00:38.000Z,12445.0
2023-01-29T01:01:38.000Z,12526.0
2023-01-29T01:02:39.000Z,12238.0
2023-01-29T01:03:38.000Z,12023.0
2023-01-29T01:04:38.000Z,11152.0
2023-01-29T01:05:39.000Z,11773.0
2023-01-29T01:06:38.000Z,11789.0
2023-01-29T01:07:39.000Z,11253.0
2023-01-29T01:08:38.000Z,11762.0
2023-01-29T01:09:38.000Z,11329.0
2023-01-29T01:10:39.000Z,11285.0
2023-01-29T01:11:38.000Z,10306.0
2023-01-29T01:12:38.000Z,10078.0
2023-01-29T01:13:38.000Z,10411.0
2023-01-29T01:14:38.000Z,10281.0
2023-01-29T01:15:39.000Z,10296.0
2023-01-29T01:16:38.000Z,10589.0
2023-01-29T01:17:38.000Z,9716.0
2023-01-29T01:18:39.000Z,9992.0
2023-01-29T01:19:38.000Z,10735.0
2023-01-29T01:20:38.000Z,10659.0
2023-01-29T01:21:38.000Z,10461.0
2023-01-29T01:22:38.000Z,11261.0
2023-01-29T01:23:39.000Z,10709.0
2023-01-29T01:24:38.000Z,10643.0
2023-01-29T01:25:38.000Z,10799.0
2023-01-29T01:26:39.000Z,11154.0
2023-01-29T01:27:38.000Z,10983.0
2023-01-29T01:28:39.000Z,11169.0
2023-01-29T01:29:38.000Z,10556.0
2023-01-29T01:30:38.000Z,10676.0
2023-01-29T01:31:39.000Z,11265.0
2023-01-29T01:32:38.000Z,12043.0
2023-01-29T01:33:38.000Z,11572.0
2023-01-29T01:34:38.000Z,11601.0
2023-01-29T01:35:38.000Z,11779.0
2023-01-29T01:36:39.000Z,11323.0
2023-01-29T01:37:38.000Z,11109.0
2023-01-29T01:38:38.000Z,11339.0
2023-01-29T01:39:39.000Z,10810.0
2023-01-29T01:40:38.000Z,11084.0
2023-01-29T01:41:38.000Z,12057.0
2023-01-29T01:42:38.000Z,11440.0
2023-01-29T01:43:38.000Z,11430.0
2023-01-29T01:44:39.000Z,11886.0
2023-01-29T01:45:38.000Z,11229.0
2023-01-29T01:46:38.000Z,11362.0
2023-01-29T01:47:38.000Z,11647.0
2023-01-29T01:48:38.000Z,11062.0
2023-01-29T01:49:39.000Z,11253.0
2023-01-29T01:50:38.000Z,11408.0
2023-01-29T01:51:38.000Z,12606.0
2023-01-29T01:52:39.000Z,12396.0
2023-01-29T01:53:38.000Z,12696.0
2023-01-29T01:54:39.000Z,12953.0
2023-01-29T01:55:38.000Z,12455.0
2023-01-29T01:56:38.000Z,12850.0
2023-01-29T01:57:39.000Z,13136.0
2023-01-29T01:58:38.000Z,13091.0
2023-01-29T01:59:38.000Z,13030.0
2023-01-29T02:00:38.000Z,12261.0
2023-01-29T02:01:38.000Z,12525.0
2023-01-29T02:02:39.000Z,13859.0
2023-01-29T02:03:38.000Z,12541.0
2023-01-29T02:04:38.000Z,12068.0
2023-01-29T02:05:39.000Z,12295.0
2023-01-29T02:06:38.000Z,13214.0
2023-01-29T02:07:38.000Z,12981.0
2023-01-29T02:08:38.000Z,12798.0
2023-01-29T02:09:38.000Z,13262.0
2023-01-29T02:10:39.000Z,13101.0
2023-01-29T02:11:38.000Z,13361.0
2023-01-29T02:12:38.000Z,14767.0
2023-01-29T02:13:38.000Z,13795.0
2023-01-29T02:14:38.000Z,14137.0
2023-01-29T02:15:38.000Z,15193.0
2023-01-29T02:16:39.000Z,15503.0
2023-01-29T02:17:38.000Z,14822.0
2023-01-29T02:18:39.000Z,14962.0
2023-01-29T02:19:38.000Z,13758.0
2023-01-29T02:20:38.000Z,13599.0
2023-01-29T02:21:39.000Z,12189.0
2023-01-29T02:22:38.000Z,12759.0
2023-01-29T02:23:38.000Z,12019.0
2023-01-29T02:24:39.000Z,11628.0
2023-01-29T02:25:38.000Z,11410.0
2023-01-29T02:26:39.000Z,11564.0
2023-01-29T02:27:38.000Z,11540.0
2023-01-29T02:28:38.000Z,11987.0
2023-01-29T02:29:39.000Z,11954.0
2023-01-29T02:30:38.000Z,11661.0
2023-01-29T02:31:38.000Z,11376.0
2023-01-29T02:32:38.000Z,10967.0
2023-01-29T02:33:38.000Z,10712.0
2023-01-29T02:34:39.000Z,10612.0
2023-01-29T02:35:38.000Z,11116.0
2023-01-29T02:36:38.000Z,10451.0
2023-01-29T02:37:39.000Z,10734.0
2023-01-29T02:38:38.000Z,10642.0
2023-01-29T02:39:39.000Z,10908.0
2023-01-29T02:40:38.000Z,10710.0
2023-01-29T02:41:38.000Z,10569.0
2023-01-29T02:42:39.000Z,10528.0
2023-01-29T02:43:38.000Z,10632.0
2023-01-29T02:44:38.000Z,10891.0
2023-01-29T02:45:38.000Z,11266.0
2023-01-29T02:46:38.000Z,11383.0
2023-01-29T02:47:39.000Z,11172.0
2023-01-29T02:48:38.000Z,10548.0
2023-01-29T02:49:38.000Z,9432.0
2023-01-29T02:50:39.000Z,9769.0
2023-01-29T02:51:38.000Z,9393.0
2023-01-29T02:52:38.000Z,10124.0
2023-01-29T02:53:38.000Z,9500.0
2023-01-29T02:54:38.000Z,9424.0
2023-01-29T02:55:39.000Z,9630.0
2023-01-29T02:56:38.000Z,11030.0
2023-01-29T02:57:38.000Z,10935.0
2023-01-29T02:58:38.000Z,10854.0
2023-01-29T02:59:38.000Z,10763.0
2023-01-29T03:00:39.000Z,10582.0
2023-01-29T03:01:38.000Z,10883.0
2023-01-29T03:02:38.000Z,10705.0
2023-01-29T03:03:39.000Z,9951.0
2023-01-29T03:04:38.000Z,10759.0
2023-01-29T03:05:39.000Z,10659.0
2023-01-29T03:06:38.000Z,11053.0
2023-01-29T03:07:38.000Z,11134.0
2023-01-29T03:08:39.000Z,11333.0
2023-01-29T03:09:38.000Z,10975.0
2023-01-29T03:10:38.000Z,10303.0
2023-01-29T03:11:38.000Z,10471.0
2023-01-29T03:12:38.000Z,11414.0
2023-01-29T03:13:38.000Z,10941.0
2023-01-29T03:14:38.000Z,11455.0
2023-01-29T03:15:38.000Z,12119.0
2023-01-29T03:16:39.000Z,12045.0
2023-01-29T03:17:38.000Z,12275.0
2023-01-29T03:18:38.000Z,12365.0
2023-01-29T03:19:39.000Z,11558.0
2023-01-29T03:20:38.000Z,10636.0
2023-01-29T03:21:38.000Z,9918.0
2023-01-29T03:22:38.000Z,10769.0
2023-01-29T03:23:38.000Z,10924.0
2023-01-29T03:24:39.000Z,10542.0
2023-01-29T03:25:38.000Z,10668.0
2023-01-29T03:26:38.000Z,10717.0
2023-01-29T03:27:39.000Z,11337.0
2023-01-29T03:28:38.000Z,11740.0
2023-01-29T03:29:38.000Z,12007.0
2023-01-29T03:30:38.000Z,11064.0
2023-01-29T03:31:38.000Z,10704.0
2023-01-29T03:32:39.000Z,10921.0
2023-01-29T03:33:38.000Z,11626.0
2023-01-29T03:34:38.000Z,11400.0
2023-01-29T03:35:39.000Z,11156.0
2023-01-29T03:36:38.000Z,11397.0
2023-01-29T03:37:39.000Z,11488.0
2023-01-29T03:38:38.000Z,11415.0
2023-01-29T03:39:38.000Z,11746.0
2023-01-29T03:40:39.000Z,12115.0
2023-01-29T03:41:38.000Z,11769.0
2023-01-29T03:42:38.000Z,12040.0
2023-01-29T03:43:38.000Z,11486.0
2023-01-29T03:44:38.000Z,12677.0
2023-01-29T03:45:39.000Z,11290.0
2023-01-29T03:46:38.000Z,10819.0
2023-01-29T03:47:38.000Z,11019.0
2023-01-29T03:48:39.000Z,11636.0
2023-01-29T03:49:38.000Z,11657.0
2023-01-29T03:50:39.000Z,10892.0
2023-01-29T03:51:38.000Z,11019.0
2023-01-29T03:52:38.000Z,10829.0
2023-01-29T03:53:39.000Z,10460.0
2023-01-29T03:54:38.000Z,10119.0
2023-01-29T03:55:38.000Z,10323.0
2023-01-29T03:56:38.000Z,10360.0
2023-01-29T03:57:38.000Z,10458.0
2023-01-29T03:58:39.000Z,10335.0
2023-01-29T03:59:38.000Z,10278.0
2023-01-29T04:00:38.000Z,10000.0
2023-01-29T04:01:39.000Z,10129.0
2023-01-29T04:02:38.000Z,10383.0
2023-01-29T04:03:39.000Z,10351.0
2023-01-29T04:04:38.000Z,9906.0
2023-01-29T04:05:38.000Z,10310.0
2023-01-29T04:06:39.000Z,10608.0
2023-01-29T04:07:38.000Z,9893.0
2023-01-29T04:08:38.000Z,9344.0
2023-01-29T04:09:38.000Z,9766.0
2023-01-29T04:10:38.000Z,9607.0
2023-01-29T04:11:39.000Z,9836.0
2023-01-29T04:12:38.000Z,9703.0
2023-01-29T04:13:38.000Z,10157.0
2023-01-29T04:14:39.000Z,9396.0
2023-01-29T04:15:38.000Z,9558.0
2023-01-29T04:16:39.000Z,9749.0
2023-01-29T04:17:38.000Z,9697.0
2023-01-29T04:18:38.000Z,9048.0
2023-01-29T04:19:39.000Z,9320.0
2023-01-29T04:20:38.000Z,8855.0
2023-01-29T04:21:38.000Z,8621.0
2023-01-29T04:22:38.000Z,9132.0
2023-01-29T04:23:38.000Z,9319.0
2023-01-29T04:24:39.000Z,9611.0
2023-01-29T04:25:38.000Z,9614.0
2023-01-29T04:26:38.000Z,10321.0
2023-01-29T04:27:39.000Z,9595.0
2023-01-29T04:28:38.000Z,9855.0
2023-01-29T04:29:38.000Z,9882.0
2023-01-29T04:30:38.000Z,10122.0
2023-01-29T04:31:38.000Z,9714.0
2023-01-29T04:32:39.000Z,9555.0
2023-01-29T04:33:38.000Z,9481.0
2023-01-29T04:34:38.000Z,9464.0
2023-01-29T04:35:39.000Z,9049.0
2023-01-29T04:36:38.000Z,8780.0
2023-01-29T04:37:39.000Z,8534.0
2023-01-29T04:38:38.000Z,8810.0
2023-01-29T04:39:38.000Z,8765.0
2023-01-29T04:40:39.000Z,8825.0
2023-01-29T04:41:38.000Z,8919.0
2023-01-29T04:42:38.000Z,8461.0
2023-01-29T04:43:38.000Z,8023.0
2023-01-29T04:44:38.000Z,7810.0
2023-01-29T04:45:39.000Z,8104.0
2023-01-29T04:46:38.000Z,8442.0
2023-01-29T04:47:38.000Z,8900.0
2023-01-29T04:48:38.000Z,8401.0
2023-01-29T04:49:38.000Z,8191.0
2023-01-29T04:50:39.000Z,8765.0
2023-01-29T04:51:38.000Z,9421.0
2023-01-29T04:52:38.000Z,9752.0
2023-01-29T04:53:39.000Z,9672.0
2023-01-29T04:54:38.000Z,9493.0
2023-01-29T04:55:38.000Z,9606.0
2023-01-29T04:56:38.000Z,9335.0
2023-01-29T04:57:38.000Z,8870.0
2023-01-29T04:58:39.000Z,9244.0
2023-01-29T04:59:38.000Z,9364.0
2023-01-29T05:00:38.000Z,9445.0
2023-01-29T05:01:39.000Z,9028.0
2023-01-29T05:02:38.000Z,9264.0
2023-01-29T05:03:39.000Z,9115.0
2023-01-29T05:04:38.000Z,8543.0
2023-01-29T05:05:38.000Z,8461.0
2023-01-29T05:06:39.000Z,8845.0
2023-01-29T05:07:38.000Z,9167.0
2023-01-29T05:08:38.000Z,8446.0
2023-01-29T05:09:38.000Z,8222.0
2023-01-29T05:10:38.000Z,8337.0
2023-01-29T05:11:39.000Z,8616.0
2023-01-29T05:12:38.000Z,8715.0
2023-01-29T05:13:38.000Z,8755.0
2023-01-29T05:14:39.000Z,8356.0
2023-01-29T05:15:38.000Z,8272.0
2023-01-29T05:16:39.000Z,8164.0
2023-01-29T05:17:38.000Z,8347.0
2023-01-29T05:18:38.000Z,8667.0
2023-01-29T05:19:39.000Z,8550.0
2023-01-29T05:20:38.000Z,8379.0
2023-01-29T05:21:38.000Z,7987.0
2023-01-29T05:22:38.000Z,8174.0
2023-01-29T05:23:38.000Z,8222.0
2023-01-29T05:24:39.000Z,8380.0
2023-01-29T05:25:38.000Z,8454.0
2023-01-29T05:26:38.000Z,8282.0
2023-01-29T05:27:39.000Z,8155.0
2023-01-29T05:28:38.000Z,7783.0
2023-01-29T05:29:38.000Z,7618.0
2023-01-29T05:30:38.000Z,7196.0
2023-01-29T05:31:38.000Z,7224.0
2023-01-29T05:32:39.000Z,7166.0
2023-01-29T05:33:38.000Z,7406.0
2023-01-29T05:34:38.000Z,7364.0
2023-01-29T05:35:39.000Z,7638.0
2023-01-29T05:36:38.000Z,7377.0
2023-01-29T05:37:39.000Z,7300.0
2023-01-29T05:38:38.000Z,7273.0
2023-01-29T05:39:38.000Z,7428.0
2023-01-29T05:40:39.000Z,7377.0
2023-01-29T05:41:38.000Z,7107.0
2023-01-29T05:42:39.000Z,6838.0
2023-01-29T05:43:38.000Z,6944.0
2023-01-29T05:44:38.000Z,6807.0
2023-01-29T05:45:39.000Z,6956.0
2023-01-29T05:46:38.000Z,7070.0
2023-01-29T05:47:38.000Z,7235.0
2023-01-29T05:48:38.000Z,7039.0
2023-01-29T05:49:38.000Z,6983.0
2023-01-29T05:50:39.000Z,6734.0
2023-01-29T05:51:38.000Z,7030.0
2023-01-29T05:52:38.000Z,6927.0
2023-01-29T05:53:39.000Z,6549.0
2023-01-29T05:54:38.000Z,6562.0
2023-01-29T05:55:38.000Z,6547.0
2023-01-29T05:56:38.000Z,6630.0
2023-01-29T05:57:38.000Z,6666.0
2023-01-29T05:58:39.000Z,6545.0
2023-01-29T05:59:38.000Z,6347.0
2023-01-29T06:00:38.000Z,6388.0
2023-01-29T06:01:39.000Z,6728.0
2023-01-29T06:02:38.000Z,6911.0
2023-01-29T06:03:39.000Z,6651.0
2023-01-29T06:04:38.000Z,6792.0
2023-01-29T06:05:38.000Z,7122.0
2023-01-29T06:06:39.000Z,6879.0
2023-01-29T06:07:38.000Z,6775.0
2023-01-29T06:08:38.000Z,6566.0
2023-01-29T06:09:38.000Z,6195.0
2023-01-29T06:10:38.000Z,6309.0
2023-01-29T06:11:39.000Z,6606.0
2023-01-29T06:12:38.000Z,6632.0
2023-01-29T06:13:38.000Z,6727.0
2023-01-29T06:14:39.000Z,6563.0
2023-01-29T06:15:38.000Z,6607.0
2023-01-29T06:16:38.000Z,6708.0
2023-01-29T06:17:38.000Z,6937.0
2023-01-29T06:18:38.000Z,6556.0
2023-01-29T06:19:39.000Z,6442.0
2023-01-29T06:20:38.000Z,6385.0
2023-01-29T06:21:38.000Z,6095.0
2023-01-29T06:22:39.000Z,6048.0
2023-01-29T06:23:38.000Z,5983.0
2023-01-29T06:24:39.000Z,5813.0
2023-01-29T06:25:38.000Z,5761.0
2023-01-29T06:26:38.000Z,5707.0
2023-01-29T06:27:39.000Z,5675.0
2023-01-29T06:28:38.000Z,5679.0
2023-01-29T06:29:38.000Z,5822.0
2023-01-29T06:30:38.000Z,5546.0
2023-01-29T06:31:38.000Z,5425.0
2023-01-29T06:32:39.000Z,5301.0
2023-01-29T06:33:38.000Z,5242.0
2023-01-29T06:34:38.000Z,5460.0
2023-01-29T06:35:39.000Z,5461.0
2023-01-29T06:36:38.000Z,5347.0
2023-01-29T06:37:39.000Z,5327.0
2023-01-29T06:38:38.000Z,5211.0
2023-01-29T06:39:38.000Z,5422.0
2023-01-29T06:40:39.000Z,5448.0
2023-01-29T06:41:38.000Z,5124.0
2023-01-29T06:42:38.000Z,5232.0
2023-01-29T06:43:38.000Z,5211.0
2023-01-29T06:44:38.000Z,5329.0
2023-01-29T06:45:39.000Z,5398.0
2023-01-29T06:46:38.000Z,5509.0
2023-01-29T06:47:38.000Z,5340.0
2023-01-29T06:48:39.000Z,5717.0
2023-01-29T06:49:38.000Z,5863.0
2023-01-29T06:50:39.000Z,5775.0
2023-01-29T06:51:38.000Z,5738.0
2023-01-29T06:52:38.000Z,5684.0
2023-01-29T06:53:39.000Z,5870.0
2023-01-29T06:54:38.000Z,5324.0
2023-01-29T06:55:38.000Z,5273.0
2023-01-29T06:56:38.000Z,5180.0
2023-01-29T06:57:38.000Z,5455.0
2023-01-29T06:58:39.000Z,5751.0
2023-01-29T06:59:38.000Z,5884.0
2023-01-29T07:00:38.000Z,5599.0
2023-01-29T07:01:39.000Z,5405.0
2023-01-29T07:02:38.000Z,5599.0
2023-01-29T07:03:39.000Z,5636.0
2023-01-29T07:04:38.000Z,5442.0
2023-01-29T07:05:38.000Z,5326.0
2023-01-29T07:06:39.000Z,5182.0
2023-01-29T07:07:38.000Z,5099.0
2023-01-29T07:08:38.000Z,5417.0
2023-01-29T07:09:38.000Z,5425.0
2023-01-29T07:10:38.000Z,5656.0
2023-01-29T07:11:39.000Z,5438.0
2023-01-29T07:12:38.000Z,5103.0
2023-01-29T07:13:38.000Z,5211.0
2023-01-29T07:14:39.000Z,5447.0
2023-01-29T07:15:38.000Z,5546.0
2023-01-29T07:16:38.000Z,5689.0
2023-01-29T07:17:38.000Z,5680.0
2023-01-29T07:18:38.000Z,5864.0
2023-01-29T07:19:39.000Z,5715.0
2023-01-29T07:20:38.000Z,5792.0
2023-01-29T07:21:38.000Z,5716.0
2023-01-29T07:22:39.000Z,5634.0
2023-01-29T07:23:38.000Z,5623.0
2023-01-29T07:24:39.000Z,5992.0
2023-01-29T07:25:38.000Z,5881.0
2023-01-29T07:26:38.000Z,5988.0
2023-01-29T07:27:39.000Z,6092.0
2023-01-29T07:28:38.000Z,5831.0
2023-01-29T07:29:38.000Z,5697.0
2023-01-29T07:30:39.000Z,5746.0
2023-01-29T07:31:38.000Z,5712.0
2023-01-29T07:32:39.000Z,5689.0
2023-01-29T07:33:38.000Z,5895.0
2023-01-29T07:34:38.000Z,6183.0
2023-01-29T07:35:39.000Z,6260.0
2023-01-29T07:36:38.000Z,6099.0
2023-01-29T07:37:39.000Z,6163.0
2023-01-29T07:38:38.000Z,6013.0
2023-01-29T07:39:38.000Z,5718.0
2023-01-29T07:40:39.000Z,5393.0
2023-01-29T07:41:38.000Z,5254.0
2023-01-29T07:42:38.000Z,5064.0
2023-01-29T07:43:38.000Z,5233.0
2023-01-29T07:44:38.000Z,5313.0
2023-01-29T07:45:39.000Z,5509.0
2023-01-29T07:46:38.000Z,5375.0
2023-01-29T07:47:38.000Z,5565.0
2023-01-29T07:48:39.000Z,5684.0
2023-01-29T07:49:38.000Z,5250.0
2023-01-29T07:50:38.000Z,5270.0
2023-01-29T07:51:38.000Z,5157.0
2023-01-29T07:52:38.000Z,5354.0
2023-01-29T07:53:39.000Z,5274.0
2023-01-29T07:54:38.000Z,5465.0
2023-01-29T07:55:38.000Z,5371.0
2023-01-29T07:56:39.000Z,5343.0
2023-01-29T07:57:38.000Z,5644.0
2023-01-29T07:58:39.000Z,5666.0
2023-01-29T07:59:38.000Z,5785.0
2023-01-29T08:00:38.000Z,5818.0
2023-01-29T08:01:39.000Z,5551.0
2023-01-29T08:02:38.000Z,5818.0
2023-01-29T08:03:39.000Z,5617.0
2023-01-29T08:04:38.000Z,5502.0
2023-01-29T08:05:38.000Z,5388.0
2023-01-29T08:06:39.000Z,5315.0
2023-01-29T08:07:38.000Z,5522.0
2023-01-29T08:08:38.000Z,5428.0
2023-01-29T08:09:39.000Z,5381.0
2023-01-29T08:10:38.000Z,5380.0
2023-01-29T08:11:39.000Z,5459.0
2023-01-29T08:12:38.000Z,5340.0
2023-01-29T08:13:38.000Z,5282.0
2023-01-29T08:14:39.000Z,5235.0
2023-01-29T08:15:38.000Z,5157.0
2023-01-29T08:16:38.000Z,5357.0
2023-01-29T08:24:39.000Z,5083.0
2023-01-29T08:25:38.000Z,5140.0
2023-01-29T08:26:38.000Z,5016.0
2023-01-29T08:27:39.000Z,5155.0
2023-01-29T08:28:38.000Z,4982.0
2023-01-29T08:29:38.000Z,5195.0
2023-01-29T08:30:39.000Z,5152.0
2023-01-29T08:31:38.000Z,5344.0
2023-01-29T08:32:39.000Z,5416.0
2023-01-29T08:33:38.000Z,5174.0
2023-01-29T08:34:38.000Z,5278.0
2023-01-29T08:35:39.000Z,5326.0
2023-01-29T08:36:38.000Z,5308.0
2023-01-29T08:37:39.000Z,5260.0
2023-01-29T08:38:38.000Z,5357.0
2023-01-29T08:39:38.000Z,5468.0
2023-01-29T08:40:39.000Z,5485.0
2023-01-29T08:41:38.000Z,5358.0
2023-01-29T08:42:38.000Z,5501.0
2023-01-29T08:43:38.000Z,5396.0
2023-01-29T08:44:38.000Z,5411.0
2023-01-29T08:45:39.000Z,5365.0
2023-01-29T08:46:38.000Z,5367.0
2023-01-29T08:47:38.000Z,5260.0
2023-01-29T08:48:39.000Z,5249.0
2023-01-29T08:49:38.000Z,5162.0
2023-01-29T08:50:38.000Z,5522.0
2023-01-29T08:51:38.000Z,5324.0
2023-01-29T08:52:38.000Z,5401.0
2023-01-29T08:53:39.000Z,5439.0
2023-01-29T08:54:38.000Z,5304.0
2023-01-29T08:55:38.000Z,5331.0
2023-01-29T08:56:39.000Z,5589.0
2023-01-29T08:57:38.000Z,5615.0
2023-01-29T08:58:39.000Z,5801.0
2023-01-29T08:59:38.000Z,5798.0
2023-01-29T09:00:38.000Z,5664.0
2023-01-29T09:01:39.000Z,5880.0
2023-01-29T09:02:38.000Z,5613.0
2023-01-29T09:03:39.000Z,5797.0
2023-01-29T09:04:38.000Z,5970.0
2023-01-29T09:05:38.000Z,6116.0
2023-01-29T09:06:39.000Z,5817.0
2023-01-29T09:07:38.000Z,5795.0
2023-01-29T09:08:38.000Z,5774.0
2023-01-29T09:09:39.000Z,5980.0
2023-01-29T09:10:38.000Z,6143.0
2023-01-29T09:11:39.000Z,6496.0
2023-01-29T09:12:38.000Z,6658.0
2023-01-29T09:13:38.000Z,6785.0
2023-01-29T09:14:39.000Z,6689.0
2023-01-29T09:15:38.000Z,6097.0
2023-01-29T09:16:38.000Z,6099.0
2023-01-29T09:17:38.000Z,6296.0
2023-01-29T09:18:38.000Z,6487.0
2023-01-29T09:19:39.000Z,6447.0
2023-01-29T09:20:38.000Z,6307.0
2023-01-29T09:21:38.000Z,6609.0
2023-01-29T09:22:39.000Z,6181.0
2023-01-29T09:23:38.000Z,5950.0
2023-01-29T09:24:39.000Z,6200.0
2023-01-29T09:25:38.000Z,6072.0
2023-01-29T09:26:38.000Z,6192.0
2023-01-29T09:27:39.000Z,6181.0
2023-01-29T09:28:38.000Z,6163.0
2023-01-29T09:29:38.000Z,6370.0
2023-01-29T09:30:38.000Z,6434.0
2023-01-29T09:31:38.000Z,6401.0
2023-01-29T09:32:39.000Z,6462.0
2023-01-29T09:33:38.000Z,6326.0
2023-01-29T09:34:38.000Z,6239.0
2023-01-29T09:35:39.000Z,6064.0
2023-01-29T09:36:38.000Z,6255.0
2023-01-29T09:37:39.000Z,6211.0
2023-01-29T09:38:38.000Z,6516.0
2023-01-29T09:39:38.000Z,6807.0
2023-01-29T09:40:39.000Z,6965.0
2023-01-29T09:41:38.000Z,7415.0
2023-01-29T09:42:38.000Z,7375.0
2023-01-29T09:43:38.000Z,7812.0
2023-01-29T09:44:38.000Z,7854.0
2023-01-29T09:45:39.000Z,8366.0
2023-01-29T09:46:38.000Z,8652.0
2023-01-29T09:47:38.000Z,8606.0
2023-01-29T09:48:39.000Z,8160.0
2023-01-29T09:49:38.000Z,7883.0
2023-01-29T09:50:39.000Z,7808.0
2023-01-29T09:51:38.000Z,7931.0
2023-01-29T09:52:38.000Z,8021.0
2023-01-29T09:53:39.000Z,7812.0
2023-01-29T09:54:38.000Z,7938.0
2023-01-29T09:55:38.000Z,7509.0
2023-01-29T09:56:39.000Z,7235.0
2023-01-29T09:57:38.000Z,7375.0
2023-01-29T09:58:39.000Z,7372.0
2023-01-29T09:59:38.000Z,7130.0
2023-01-29T10:00:38.000Z,7599.0
2023-01-29T10:01:39.000Z,7374.0
2023-01-29T10:02:38.000Z,8183.0
2023-01-29T10:03:39.000Z,8263.0
2023-01-29T10:04:38.000Z,8306.0
2023-01-29T10:05:38.000Z,8339.0
2023-01-29T10:06:39.000Z,8329.0
2023-01-29T10:07:38.000Z,8191.0
2023-01-29T10:08:38.000Z,8484.0
2023-01-29T10:09:39.000Z,8661.0
2023-01-29T10:10:38.000Z,8803.0
2023-01-29T10:11:39.000Z,9946.0
2023-01-29T10:12:38.000Z,10231.0
2023-01-29T10:13:38.000Z,10233.0
2023-01-29T10:14:39.000Z,10215.0
2023-01-29T10:15:38.000Z,10813.0
2023-01-29T10:16:38.000Z,11382.0
2023-01-29T10:17:38.000Z,10885.0
2023-01-29T10:18:38.000Z,10569.0
2023-01-29T10:19:39.000Z,10405.0
2023-01-29T10:20:38.000Z,10520.0
2023-01-29T10:21:38.000Z,10559.0
2023-01-29T10:22:39.000Z,10882.0
2023-01-29T10:23:38.000Z,10515.0
2023-01-29T10:24:39.000Z,10786.0
2023-01-29T10:25:38.000Z,10733.0
2023-01-29T10:26:38.000Z,10198.0
2023-01-29T10:27:39.000Z,10120.0
2023-01-29T10:28:38.000Z,10028.0
2023-01-29T10:29:38.000Z,9995.0
2023-01-29T10:30:38.000Z,9604.0
2023-01-29T10:31:38.000Z,9292.0
2023-01-29T10:32:39.000Z,9729.0
2023-01-29T10:33:38.000Z,10240.0
2023-01-29T10:34:38.000Z,9803.0
2023-01-29T10:35:39.000Z,10104.0
2023-01-29T10:36:38.000Z,10541.0
2023-01-29T10:37:39.000Z,10430.0
2023-01-29T10:38:38.000Z,10276.0
2023-01-29T10:39:38.000Z,10679.0
2023-01-29T10:40:39.000Z,11198.0
2023-01-29T10:41:38.000Z,11972.0
2023-01-29T10:42:38.000Z,11251.0
2023-01-29T10:43:38.000Z,11065.0
2023-01-29T10:44:38.000Z,11142.0
2023-01-29T10:45:39.000Z,10974.0
2023-01-29T10:46:38.000Z,10964.0
2023-01-29T10:47:38.000Z,11044.0
2023-01-29T10:48:39.000Z,10886.0
2023-01-29T10:49:38.000Z,10826.0
2023-01-29T10:50:39.000Z,11073.0
2023-01-29T10:51:38.000Z,11717.0
2023-01-29T10:52:38.000Z,12725.0
2023-01-29T10:53:39.000Z,12583.0
2023-01-29T10:54:38.000Z,12311.0
2023-01-29T10:55:38.000Z,12840.0
2023-01-29T10:56:39.000Z,13600.0
2023-01-29T10:57:38.000Z,12245.0
2023-01-29T10:58:39.000Z,12188.0
2023-01-29T10:59:38.000Z,12601.0
2023-01-29T11:00:38.000Z,12780.0
2023-01-29T11:01:39.000Z,13429.0
2023-01-29T11:02:38.000Z,13335.0
2023-01-29T11:03:39.000Z,13481.0
2023-01-29T11:04:38.000Z,13310.0
2023-01-29T11:05:38.000Z,12481.0
2023-01-29T11:06:39.000Z,11937.0
2023-01-29T11:07:38.000Z,12453.0
2023-01-29T11:08:38.000Z,12751.0
2023-01-29T11:09:38.000Z,12380.0
2023-01-29T11:10:38.000Z,13230.0
2023-01-29T11:11:39.000Z,13277.0
2023-01-29T11:12:38.000Z,13191.0
2023-01-29T11:13:38.000Z,13188.0
2023-01-29T11:14:39.000Z,12177.0
2023-01-29T11:15:38.000Z,11283.0
2023-01-29T11:16:38.000Z,11882.0
2023-01-29T11:17:39.000Z,12665.0
2023-01-29T11:18:38.000Z,12170.0
2023-01-29T11:19:39.000Z,11436.0
2023-01-29T11:20:38.000Z,11297.0
2023-01-29T11:21:38.000Z,10469.0
2023-01-29T11:22:39.000Z,11199.0
2023-01-29T11:23:38.000Z,11659.0
2023-01-29T11:24:39.000Z,11302.0
2023-01-29T11:25:38.000Z,12133.0
2023-01-29T11:26:38.000Z,12105.0
2023-01-29T11:27:39.000Z,12648.0
2023-01-29T11:28:38.000Z,12414.0
2023-01-29T11:29:38.000Z,13245.0
2023-01-29T11:30:38.000Z,12469.0
2023-01-29T11:31:38.000Z,12089.0
2023-01-29T11:32:39.000Z,12131.0
2023-01-29T11:33:38.000Z,12054.0
2023-01-29T11:34:38.000Z,13174.0
2023-01-29T11:35:39.000Z,13934.0
2023-01-29T11:36:38.000Z,13054.0
2023-01-29T11:37:39.000Z,12617.0
2023-01-29T11:38:38.000Z,14208.0
2023-01-29T11:39:38.000Z,14530.0
2023-01-29T11:40:39.000Z,12501.0
2023-01-29T11:41:38.000Z,13745.0
2023-01-29T11:42:38.000Z,12784.0
2023-01-29T11:43:39.000Z,13081.0
2023-01-29T11:44:38.000Z,12828.0
2023-01-29T11:45:39.000Z,12900.0
2023-01-29T11:46:38.000Z,12238.0
2023-01-29T11:47:38.000Z,11680.0
2023-01-29T11:48:39.000Z,12295.0
2023-01-29T11:49:38.000Z,12789.0
2023-01-29T11:50:39.000Z,13018.0
2023-01-29T11:51:38.000Z,11791.0
2023-01-29T11:52:38.000Z,12070.0
2023-01-29T11:53:39.000Z,12682.0
2023-01-29T11:54:38.000Z,12600.0
2023-01-29T11:55:38.000Z,12283.0
2023-01-29T11:56:39.000Z,11973.0
2023-01-29T11:57:38.000Z,11841.0
2023-01-29T11:58:39.000Z,11569.0
2023-01-29T11:59:38.000Z,11209.0
2023-01-29T12:00:38.000Z,11470.0
2023-01-29T12:01:39.000Z,11499.0
2023-01-29T12:02:38.000Z,11904.0
2023-01-29T12:03:38.000Z,11011.0
2023-01-29T12:04:38.000Z,11073.0
2023-01-29T12:05:38.000Z,10917.0
2023-01-29T12:06:39.000Z,11229.0
2023-01-29T12:07:38.000Z,12465.0
2023-01-29T12:08:38.000Z,12075.0
2023-01-29T12:09:39.000Z,11922.0
2023-01-29T12:10:38.000Z,12203.0
2023-01-29T12:11:39.000Z,13173.0
2023-01-29T12:12:38.000Z,13810.0
2023-01-29T12:13:38.000Z,14768.0
2023-01-29T12:14:39.000Z,16000.0
2023-01-29T12:15:38.000Z,15085.0
2023-01-29T12:16:38.000Z,14314.0
2023-01-29T12:17:39.000Z,14113.0
2023-01-29T12:18:38.000Z,12465.0
2023-01-29T12:19:39.000Z,12512.0
2023-01-29T12:20:38.000Z,12269.0
2023-01-29T12:21:38.000Z,11937.0
2023-01-29T12:22:39.000Z,12725.0
2023-01-29T12:23:38.000Z,12486.0
2023-01-29T12:24:38.000Z,11750.0